Time;durP1;ratioP1;P1;durP2;ratioP2;P2;SDS_P1;SDS_P2;PMS_P1;PMS_P2;Temp;Humidity;BMP_temperature;BMP_pressure;BME280_temperature;BME280_humidity;BME280_pressure;Samples;Min_cycle;Max_cycle;Signal;HPM_P1;HPM_P2
2023/07/20 00:01:03;;;;;;;4.53;2.45;;;;;;;;;;5057683;28;20040;-80
2023/07/20 00:03:31;;;;;;;2.45;2.22;;;;;;;;;;5063640;28;20053;-77
2023/07/20 00:05:59;;;;;;;3.80;2.10;;;;;;;;;;5064030;28;20174;-78
2023/07/20 00:08:26;;;;;;;2.65;2.20;;;;;;;;;;5058261;28;20052;-78
2023/07/20 00:10:54;;;;;;;2.90;2.22;;;;;;;;;;5052169;28;20048;-77
2023/07/20 00:13:21;;;;;;;2.40;2.20;;;;;;;;;;5059879;28;20431;-79
2023/07/20 00:15:49;;;;;;;2.97;2.30;;;;;;;;;;5059680;28;20052;-79
2023/07/20 00:18:16;;;;;;;3.33;2.38;;;;;;;;;;5060136;28;20068;-80
2023/07/20 00:20:44;;;;;;;4.32;2.58;;;;;;;;;;5060067;28;20083;-78
2023/07/20 00:23:11;;;;;;;2.63;2.38;;;;;;;;;;5051970;28;20095;-81
2023/07/20 00:25:39;;;;;;;2.75;2.55;;;;;;;;;;5051197;28;20136;-81
2023/07/20 00:28:06;;;;;;;2.20;2.10;;;;;;;;;;5060619;28;20506;-78
2023/07/20 00:30:34;;;;;;;2.85;2.35;;;;;;;;;;5061670;28;20047;-79
2023/07/20 00:33:02;;;;;;;3.28;2.38;;;;;;;;;;5078908;28;20421;-78
2023/07/20 00:35:30;;;;;;;2.83;2.63;;;;;;;;;;5057788;28;20047;-78
2023/07/20 00:37:58;;;;;;;3.58;2.85;;;;;;;;;;5056074;28;20071;-78
2023/07/20 00:40:25;;;;;;;3.05;2.40;;;;;;;;;;5053265;28;20048;-78
2023/07/20 00:42:53;;;;;;;2.50;2.30;;;;;;;;;;5054826;28;20091;-78
2023/07/20 00:45:25;;;;;;;2.58;2.38;;;;;;;;;;5051065;28;20123;-78
2023/07/20 00:47:53;;;;;;;2.90;2.70;;;;;;;;;;5059514;28;20407;-79
2023/07/20 00:50:20;;;;;;;2.67;2.45;;;;;;;;;;5062963;28;20051;-79
2023/07/20 00:52:48;;;;;;;2.90;2.50;;;;;;;;;;5063521;28;20098;-78
2023/07/20 00:55:19;;;;;;;5.38;2.80;;;;;;;;;;5056723;28;20037;-77
2023/07/20 00:57:46;;;;;;;3.95;2.58;;;;;;;;;;5064259;28;20047;-78
2023/07/20 01:00:15;;;;;;;4.22;2.85;;;;;;;;;;5052203;28;20044;-77
2023/07/20 01:02:43;;;;;;;4.45;3.08;;;;;;;;;;5061570;28;20044;-80
2023/07/20 01:05:12;;;;;;;2.80;2.60;;;;;;;;;;5048312;28;20091;-78
2023/07/20 01:07:43;;;;;;;3.05;2.70;;;;;;;;;;5059837;28;20055;-80
2023/07/20 01:10:31;;;;;;;5.68;2.78;;;;;;;;;;5056346;28;20068;-77
2023/07/20 01:13:01;;;;;;;3.33;2.50;;;;;;;;;;5056254;28;20315;-77
2023/07/20 01:15:28;;;;;;;3.75;2.75;;;;;;;;;;5052373;28;20065;-78
2023/07/20 01:18:01;;;;;;;6.07;2.80;;;;;;;;;;5057122;28;20048;-77
2023/07/20 01:20:29;;;;;;;2.92;2.72;;;;;;;;;;5058509;28;20040;-80
2023/07/20 01:23:15;;;;;;;3.10;2.80;;;;;;;;;;5061861;28;20489;-80
2023/07/20 01:25:55;;;;;;;5.07;3.00;;;;;;;;;;5063627;28;20053;-79
2023/07/20 01:28:35;;;;;;;4.32;2.88;;;;;;;;;;5062394;28;20038;-75
2023/07/20 01:31:22;;;;;;;2.67;2.47;;;;;;;;;;5060486;28;20131;-77
2023/07/20 01:33:51;;;;;;;3.05;2.65;;;;;;;;;;5061778;28;20106;-78
2023/07/20 01:36:19;;;;;;;3.05;2.60;;;;;;;;;;5064189;28;20054;-75
2023/07/20 01:38:47;;;;;;;3.10;2.40;;;;;;;;;;5060662;28;20048;-76
2023/07/20 01:41:15;;;;;;;3.05;2.58;;;;;;;;;;5061505;28;20494;-77
2023/07/20 01:43:43;;;;;;;3.83;2.80;;;;;;;;;;5063420;28;20098;-79
2023/07/20 01:46:10;;;;;;;3.00;2.70;;;;;;;;;;5061997;28;20072;-78
2023/07/20 01:48:38;;;;;;;2.67;2.40;;;;;;;;;;5063107;28;20049;-76
2023/07/20 01:51:05;;;;;;;3.83;2.40;;;;;;;;;;5060395;28;20041;-78
2023/07/20 01:53:33;;;;;;;3.10;2.78;;;;;;;;;;5060653;28;20053;-79
2023/07/20 01:56:00;;;;;;;3.08;2.35;;;;;;;;;;5055608;28;20156;-76
2023/07/20 01:58:29;;;;;;;2.70;2.50;;;;;;;;;;5046787;28;20110;-79
2023/07/20 02:00:56;;;;;;;3.28;2.60;;;;;;;;;;5055000;28;20430;-78
2023/07/20 02:03:25;;;;;;;2.55;2.35;;;;;;;;;;5050257;28;20126;-78
2023/07/20 02:05:53;;;;;;;2.58;2.33;;;;;;;;;;5056097;28;20247;-76
2023/07/20 02:08:20;;;;;;;3.13;2.78;;;;;;;;;;5054055;28;20070;-77
2023/07/20 02:10:49;;;;;;;2.40;2.20;;;;;;;;;;5048020;28;20037;-76
2023/07/20 02:13:16;;;;;;;6.70;2.42;;;;;;;;;;5053567;28;20219;-79
2023/07/20 02:15:44;;;;;;;2.50;2.30;;;;;;;;;;5053269;28;20052;-78
2023/07/20 02:18:12;;;;;;;2.47;2.30;;;;;;;;;;5058257;28;20055;-78
2023/07/20 02:20:41;;;;;;;2.47;2.28;;;;;;;;;;5049430;28;20049;-78
2023/07/20 02:23:08;;;;;;;2.53;2.35;;;;;;;;;;5056742;28;20040;-78
2023/07/20 02:25:36;;;;;;;2.72;2.45;;;;;;;;;;5056689;28;20131;-77
2023/07/20 02:28:05;;;;;;;2.67;2.47;;;;;;;;;;5057180;28;20051;-78
2023/07/20 02:30:32;;;;;;;3.35;2.40;;;;;;;;;;5058048;28;20044;-78
2023/07/20 02:33:00;;;;;;;2.45;2.25;;;;;;;;;;5062374;28;20040;-78
2023/07/20 02:35:27;;;;;;;2.42;2.30;;;;;;;;;;5052789;28;20040;-78
2023/07/20 02:37:54;;;;;;;2.70;2.50;;;;;;;;;;5056267;28;20049;-78
2023/07/20 02:40:23;;;;;;;2.70;2.38;;;;;;;;;;5053085;28;20045;-79
2023/07/20 02:42:50;;;;;;;2.38;2.17;;;;;;;;;;5057689;28;20136;-78
2023/07/20 02:45:18;;;;;;;2.30;2.10;;;;;;;;;;5060390;28;20048;-76
2023/07/20 02:47:46;;;;;;;2.28;2.17;;;;;;;;;;5065497;28;20506;-77
2023/07/20 02:50:14;;;;;;;2.30;2.10;;;;;;;;;;5063635;28;20060;-76
2023/07/20 02:52:41;;;;;;;2.30;2.10;;;;;;;;;;5060759;28;20154;-75
2023/07/20 02:55:09;;;;;;;2.50;2.30;;;;;;;;;;5067221;28;20054;-76
2023/07/20 02:57:36;;;;;;;2.28;2.17;;;;;;;;;;5057326;28;20057;-76
2023/07/20 03:00:05;;;;;;;3.35;2.50;;;;;;;;;;5059047;28;20460;-76
2023/07/20 03:02:33;;;;;;;2.65;2.45;;;;;;;;;;5058916;28;20057;-76
2023/07/20 03:05:02;;;;;;;2.33;2.13;;;;;;;;;;5060309;28;20044;-77
2023/07/20 03:07:30;;;;;;;2.40;2.10;;;;;;;;;;5066805;28;20044;-76
2023/07/20 03:09:57;;;;;;;3.00;2.13;;;;;;;;;;5061243;28;20120;-76
2023/07/20 03:12:25;;;;;;;2.85;2.42;;;;;;;;;;5063216;28;20048;-76
2023/07/20 03:14:52;;;;;;;2.70;2.50;;;;;;;;;;5055663;28;20370;-76
2023/07/20 03:17:20;;;;;;;2.90;2.30;;;;;;;;;;5064091;28;20047;-76
2023/07/20 03:19:48;;;;;;;2.10;2.00;;;;;;;;;;5059223;28;20059;-77
2023/07/20 03:22:15;;;;;;;2.83;2.20;;;;;;;;;;5059621;28;20040;-76
2023/07/20 03:24:43;;;;;;;3.35;2.35;;;;;;;;;;5047510;28;20053;-76
2023/07/20 03:27:10;;;;;;;2.55;2.30;;;;;;;;;;5056930;28;20414;-76
2023/07/20 03:29:38;;;;;;;2.95;2.03;;;;;;;;;;5060325;28;20415;-76
2023/07/20 03:32:06;;;;;;;2.40;2.17;;;;;;;;;;5060928;28;20470;-76
2023/07/20 03:34:34;;;;;;;2.60;2.38;;;;;;;;;;5060240;28;20426;-76
2023/07/20 03:37:04;;;;;;;2.15;2.05;;;;;;;;;;5056638;28;20396;-76
2023/07/20 03:39:31;;;;;;;3.88;2.50;;;;;;;;;;5060996;28;21029;-76
2023/07/20 03:41:59;;;;;;;3.50;2.25;;;;;;;;;;5056326;28;20053;-76
2023/07/20 03:44:26;;;;;;;2.40;2.20;;;;;;;;;;5058340;28;20051;-76
2023/07/20 03:46:54;;;;;;;2.33;2.10;;;;;;;;;;5053625;28;20532;-76
2023/07/20 03:49:22;;;;;;;2.33;2.13;;;;;;;;;;5058089;28;20063;-79
2023/07/20 03:51:49;;;;;;;4.47;2.40;;;;;;;;;;5059306;28;20479;-78
2023/07/20 03:54:16;;;;;;;2.45;2.35;;;;;;;;;;5065945;28;20044;-76
2023/07/20 03:56:45;;;;;;;2.30;2.08;;;;;;;;;;5064783;28;20168;-77
2023/07/20 03:59:12;;;;;;;2.47;2.00;;;;;;;;;;5063820;28;20127;-80
2023/07/20 04:01:40;;;;;;;2.70;2.50;;;;;;;;;;5056561;28;20098;-79
2023/07/20 04:04:08;;;;;;;3.28;2.20;;;;;;;;;;5063733;28;20622;-78
2023/07/20 04:06:36;;;;;;;3.45;2.60;;;;;;;;;;5064836;28;20123;-80
2023/07/20 04:09:04;;;;;;;2.45;2.25;;;;;;;;;;5064121;28;20050;-78
2023/07/20 04:11:32;;;;;;;2.70;2.20;;;;;;;;;;5057822;28;20402;-76
2023/07/20 04:13:59;;;;;;;4.50;2.40;;;;;;;;;;5065953;28;20173;-76
2023/07/20 04:16:27;;;;;;;3.13;2.33;;;;;;;;;;5065692;28;20044;-76
2023/07/20 04:18:58;;;;;;;3.10;2.15;;;;;;;;;;5064424;28;20165;-77
2023/07/20 04:21:27;;;;;;;2.15;2.05;;;;;;;;;;5057399;28;20044;-76
2023/07/20 04:23:55;;;;;;;2.95;2.33;;;;;;;;;;5059796;28;20048;-76
2023/07/20 04:26:22;;;;;;;2.50;2.38;;;;;;;;;;5057950;28;20048;-76
2023/07/20 04:28:50;;;;;;;3.30;2.58;;;;;;;;;;5060255;28;20044;-79
2023/07/20 04:31:33;;;;;;;2.65;2.47;;;;;;;;;;5053972;28;20049;-78
2023/07/20 04:34:01;;;;;;;3.05;2.53;;;;;;;;;;5057156;28;20037;-79
2023/07/20 04:36:29;;;;;;;2.65;2.45;;;;;;;;;;5050168;28;20041;-79
2023/07/20 04:38:56;;;;;;;3.67;2.50;;;;;;;;;;5058600;28;20045;-78
2023/07/20 04:41:25;;;;;;;5.03;2.92;;;;;;;;;;5052659;28;20438;-78
2023/07/20 04:43:55;;;;;;;4.30;3.20;;;;;;;;;;5055290;28;20118;-78
2023/07/20 04:46:27;;;;;;;;;;;;;;;;;;5063270;28;20052;-77
2023/07/20 04:48:55;;;;;;;3.15;2.90;;;;;;;;;;5063091;28;19920;-77
2023/07/20 04:51:23;;;;;;;2.53;2.35;;;;;;;;;;5057966;28;20118;-78
2023/07/20 04:53:54;;;;;;;3.03;2.60;;;;;;;;;;5069932;28;20068;-77
2023/07/20 04:56:23;;;;;;;3.53;2.90;;;;;;;;;;5054272;28;20075;-77
2023/07/20 04:58:52;;;;;;;3.25;2.60;;;;;;;;;;5056031;28;20052;-77
2023/07/20 05:01:19;;;;;;;3.67;2.55;;;;;;;;;;5062476;28;20090;-77
2023/07/20 05:03:47;;;;;;;3.97;3.00;;;;;;;;;;5055821;28;20048;-77
2023/07/20 05:06:15;;;;;;;3.13;2.88;;;;;;;;;;5048286;28;20044;-78
2023/07/20 05:08:42;;;;;;;5.60;3.22;;;;;;;;;;5061562;28;20055;-78
2023/07/20 05:11:10;;;;;;;3.40;3.20;;;;;;;;;;5053593;28;20175;-77
2023/07/20 05:13:37;;;;;;;2.95;2.67;;;;;;;;;;5062861;28;20048;-78
2023/07/20 05:16:05;;;;;;;3.33;3.03;;;;;;;;;;5052030;28;20044;-77
2023/07/20 05:18:33;;;;;;;3.40;3.10;;;;;;;;;;5060168;28;20516;-77
2023/07/20 05:21:00;;;;;;;4.45;2.90;;;;;;;;;;5052592;28;20056;-77
2023/07/20 05:23:28;;;;;;;2.53;2.33;;;;;;;;;;5061180;28;20490;-77
2023/07/20 05:25:56;;;;;;;2.92;2.53;;;;;;;;;;5060623;28;20072;-78
2023/07/20 05:28:27;;;;;;;2.58;2.38;;;;;;;;;;5062730;28;20303;-78
2023/07/20 05:30:55;;;;;;;3.60;2.22;;;;;;;;;;5060133;28;20047;-77
2023/07/20 05:33:22;;;;;;;2.20;2.10;;;;;;;;;;5050277;28;20787;-77
2023/07/20 05:35:50;;;;;;;2.78;2.47;;;;;;;;;;5060754;28;20403;-77
2023/07/20 05:38:17;;;;;;;2.80;2.08;;;;;;;;;;5054847;28;20056;-77
2023/07/20 05:40:45;;;;;;;4.40;2.00;;;;;;;;;;5055272;28;20060;-77
2023/07/20 05:43:13;;;;;;;2.30;2.10;;;;;;;;;;5061693;28;20403;-78
2023/07/20 05:45:45;;;;;;;2.47;2.28;;;;;;;;;;5054851;28;20057;-77
2023/07/20 05:48:13;;;;;;;3.92;2.00;;;;;;;;;;5062606;28;20049;-77
2023/07/20 05:50:43;;;;;;;2.17;1.98;;;;;;;;;;5055844;28;20041;-77
2023/07/20 05:53:11;;;;;;;4.07;2.13;;;;;;;;;;5063628;28;20059;-78
2023/07/20 05:55:39;;;;;;;2.33;2.13;;;;;;;;;;5052572;28;20315;-77
2023/07/20 05:58:07;;;;;;;3.42;2.22;;;;;;;;;;5056277;28;20033;-79
2023/07/20 06:00:35;;;;;;;3.08;1.98;;;;;;;;;;5063231;28;20111;-77
2023/07/20 06:03:03;;;;;;;4.13;2.30;;;;;;;;;;5055291;28;20063;-77
2023/07/20 06:05:30;;;;;;;2.42;2.10;;;;;;;;;;5049672;28;20059;-78
2023/07/20 06:08:00;;;;;;;4.38;2.67;;;;;;;;;;5058441;28;20114;-79
2023/07/20 06:10:27;;;;;;;3.17;2.20;;;;;;;;;;5063612;28;20040;-77
2023/07/20 06:12:56;;;;;;;3.45;2.45;;;;;;;;;;5057375;28;20049;-77
2023/07/20 06:15:27;;;;;;;3.28;1.90;;;;;;;;;;5058520;28;20042;-77
2023/07/20 06:17:55;;;;;;;2.50;2.30;;;;;;;;;;5063622;28;20374;-80
2023/07/20 06:20:23;;;;;;;2.58;1.83;;;;;;;;;;5059415;28;20049;-78
2023/07/20 06:22:51;;;;;;;3.40;2.40;;;;;;;;;;5066592;28;20053;-79
2023/07/20 06:25:18;;;;;;;2.55;2.35;;;;;;;;;;5062006;28;20056;-78
2023/07/20 06:27:46;;;;;;;2.72;2.47;;;;;;;;;;5061344;28;20414;-77
2023/07/20 06:30:13;;;;;;;2.60;2.40;;;;;;;;;;5055606;28;20066;-78
2023/07/20 06:32:41;;;;;;;2.42;2.13;;;;;;;;;;5067221;28;20084;-77
2023/07/20 06:35:08;;;;;;;2.47;2.22;;;;;;;;;;5069306;28;20410;-77
2023/07/20 06:37:39;;;;;;;2.33;2.13;;;;;;;;;;5066772;28;20067;-79
2023/07/20 06:40:08;;;;;;;6.75;2.55;;;;;;;;;;5062610;28;20102;-77
2023/07/20 06:42:39;;;;;;;2.30;2.00;;;;;;;;;;5064284;28;20588;-77
2023/07/20 06:45:10;;;;;;;4.47;2.33;;;;;;;;;;5063240;28;20126;-78
2023/07/20 06:47:40;;;;;;;1.95;1.85;;;;;;;;;;5059029;28;20313;-80
2023/07/20 06:50:08;;;;;;;3.35;1.92;;;;;;;;;;5061035;28;20146;-77
2023/07/20 06:52:35;;;;;;;5.13;2.15;;;;;;;;;;5053897;28;20363;-77
2023/07/20 06:55:03;;;;;;;1.95;1.85;;;;;;;;;;5057468;28;20407;-77
2023/07/20 06:57:33;;;;;;;2.05;1.63;;;;;;;;;;5056307;28;20045;-76
2023/07/20 07:00:00;;;;;;;2.63;1.75;;;;;;;;;;5063537;28;20132;-76
2023/07/20 07:02:29;;;;;;;3.38;1.77;;;;;;;;;;5064028;28;20494;-78
2023/07/20 07:04:57;;;;;;;3.05;2.08;;;;;;;;;;5060635;28;20135;-78
2023/07/20 07:07:44;;;;;;;2.20;2.00;;;;;;;;;;5059127;28;20048;-78
2023/07/20 07:10:12;;;;;;;2.08;1.90;;;;;;;;;;5055333;28;20040;-79
2023/07/20 07:12:40;;;;;;;1.80;1.70;;;;;;;;;;5062760;28;20577;-77
2023/07/20 07:15:10;;;;;;;3.20;1.90;;;;;;;;;;5055045;28;20499;-78
2023/07/20 07:17:38;;;;;;;4.75;2.00;;;;;;;;;;5051979;28;20091;-77
2023/07/20 07:20:07;;;;;;;2.58;1.70;;;;;;;;;;5057427;28;20049;-77
2023/07/20 07:22:37;;;;;;;1.77;1.67;;;;;;;;;;5063575;28;20048;-77
2023/07/20 07:25:05;;;;;;;4.50;1.70;;;;;;;;;;5066843;28;20507;-77
2023/07/20 07:27:32;;;;;;;2.00;1.77;;;;;;;;;;5066903;28;20056;-79
2023/07/20 07:30:00;;;;;;;2.35;1.70;;;;;;;;;;5065213;28;20486;-77
2023/07/20 07:32:28;;;;;;;1.50;1.40;;;;;;;;;;5065784;28;20573;-77
2023/07/20 07:34:58;;;;;;;1.90;1.70;;;;;;;;;;5067053;28;20490;-77
2023/07/20 07:37:25;;;;;;;2.17;1.55;;;;;;;;;;5063225;28;20066;-77
2023/07/20 07:39:53;;;;;;;1.58;1.30;;;;;;;;;;5059136;28;20139;-78
2023/07/20 07:42:20;;;;;;;2.90;1.67;;;;;;;;;;5060872;28;20054;-78
2023/07/20 07:44:51;;;;;;;2.42;1.50;;;;;;;;;;5064171;28;20052;-77
2023/07/20 07:47:18;;;;;;;1.80;1.70;;;;;;;;;;5055020;28;20510;-77
2023/07/20 07:49:46;;;;;;;3.22;1.50;;;;;;;;;;5064867;28;20063;-78
2023/07/20 07:52:14;;;;;;;1.80;1.70;;;;;;;;;;5059967;28;20064;-76
2023/07/20 07:54:41;;;;;;;1.88;1.30;;;;;;;;;;5057956;28;20325;-77
2023/07/20 07:57:09;;;;;;;1.67;1.58;;;;;;;;;;5063847;28;20044;-77
2023/07/20 07:59:37;;;;;;;2.10;1.40;;;;;;;;;;5058719;28;20063;-78
2023/07/20 08:02:05;;;;;;;1.50;1.40;;;;;;;;;;5063639;28;20056;-77
2023/07/20 08:04:32;;;;;;;1.45;1.30;;;;;;;;;;5064873;28;20443;-77
2023/07/20 08:07:00;;;;;;;1.65;1.30;;;;;;;;;;5066386;28;20560;-77
2023/07/20 08:09:28;;;;;;;4.03;1.50;;;;;;;;;;5066773;28;20159;-77
2023/07/20 08:11:56;;;;;;;1.88;1.52;;;;;;;;;;5064426;28;20050;-77
2023/07/20 08:14:23;;;;;;;4.85;1.45;;;;;;;;;;5059860;28;20049;-77
2023/07/20 08:16:53;;;;;;;1.73;1.40;;;;;;;;;;5062877;28;20060;-76
2023/07/20 08:19:21;;;;;;;2.88;1.40;;;;;;;;;;5060296;28;20036;-77
2023/07/20 08:21:49;;;;;;;1.55;1.30;;;;;;;;;;5065102;28;20049;-77
2023/07/20 08:24:16;;;;;;;2.15;1.15;;;;;;;;;;5067110;28;20047;-78
2023/07/20 08:26:44;;;;;;;3.42;1.27;;;;;;;;;;5059464;28;20140;-78
2023/07/20 08:29:11;;;;;;;4.43;1.23;;;;;;;;;;5062380;28;20052;-77
2023/07/20 08:31:39;;;;;;;3.08;1.50;;;;;;;;;;5065501;28;20063;-78
2023/07/20 08:34:06;;;;;;;1.33;1.30;;;;;;;;;;5064835;28;20118;-78
2023/07/20 08:36:51;;;;;;;1.25;1.20;;;;;;;;;;5057962;28;20052;-77
2023/07/20 08:39:18;;;;;;;1.00;1.00;;;;;;;;;;5065489;28;20075;-77
2023/07/20 08:41:47;;;;;;;1.67;1.55;;;;;;;;;;5057680;28;20102;-76
2023/07/20 08:44:14;;;;;;;1.70;1.30;;;;;;;;;;5054333;28;20048;-77
2023/07/20 08:46:43;;;;;;;2.67;1.10;;;;;;;;;;5065005;28;20052;-77
2023/07/20 08:49:11;;;;;;;3.50;1.55;;;;;;;;;;5057740;28;20045;-79
2023/07/20 08:51:41;;;;;;;1.20;1.20;;;;;;;;;;5063763;28;20048;-77
2023/07/20 08:54:14;;;;;;;2.20;1.20;;;;;;;;;;5058664;28;20044;-77
2023/07/20 08:56:41;;;;;;;2.25;1.10;;;;;;;;;;5056718;28;20457;-82
2023/07/20 08:59:09;;;;;;;1.48;1.35;;;;;;;;;;5057655;28;20437;-80
2023/07/20 09:01:39;;;;;;;1.42;1.33;;;;;;;;;;5053840;28;20506;-76
2023/07/20 09:04:07;;;;;;;2.65;1.67;;;;;;;;;;5052766;28;20048;-76
2023/07/20 09:06:36;;;;;;;1.80;1.25;;;;;;;;;;5052247;28;20049;-76
2023/07/20 09:09:03;;;;;;;4.55;1.40;;;;;;;;;;5056027;28;20474;-77
2023/07/20 09:11:31;;;;;;;1.35;1.23;;;;;;;;;;5050932;28;20510;-76
2023/07/20 09:14:09;;;;;;;2.10;1.67;;;;;;;;;;5050393;28;20044;-76
2023/07/20 09:16:49;;;;;;;1.52;1.30;;;;;;;;;;5044450;28;20502;-76
2023/07/20 09:19:17;;;;;;;1.30;1.20;;;;;;;;;;5060117;28;20102;-77
2023/07/20 09:21:46;;;;;;;1.33;1.05;;;;;;;;;;5046869;28;20047;-77
2023/07/20 09:24:14;;;;;;;3.72;1.50;;;;;;;;;;5052207;28;20056;-77
2023/07/20 09:26:44;;;;;;;1.60;1.40;;;;;;;;;;5054719;28;20053;-77
2023/07/20 09:29:12;;;;;;;1.40;1.08;;;;;;;;;;5047380;28;20041;-78
2023/07/20 09:31:40;;;;;;;1.48;1.33;;;;;;;;;;5052311;28;20037;-77
2023/07/20 09:34:08;;;;;;;1.88;1.30;;;;;;;;;;5045292;28;20040;-78
2023/07/20 09:36:37;;;;;;;2.20;1.88;;;;;;;;;;5056185;28;20037;-78
2023/07/20 09:39:08;;;;;;;3.08;1.48;;;;;;;;;;5054822;28;20072;-77
2023/07/20 09:41:42;;;;;;;1.55;1.45;;;;;;;;;;5052888;28;20552;-77
2023/07/20 09:44:14;;;;;;;1.40;1.30;;;;;;;;;;5057082;28;20106;-77
2023/07/20 09:46:45;;;;;;;1.20;1.10;;;;;;;;;;5056516;28;20053;-77
2023/07/20 09:49:17;;;;;;;2.33;1.33;;;;;;;;;;5059503;28;20041;-77
2023/07/20 09:51:48;;;;;;;2.35;1.48;;;;;;;;;;5059449;28;20037;-78
2023/07/20 09:54:15;;;;;;;4.03;1.40;;;;;;;;;;5063535;28;20048;-77
2023/07/20 09:56:42;;;;;;;1.30;1.20;;;;;;;;;;5058438;28;20051;-77
2023/07/20 09:59:10;;;;;;;1.88;1.35;;;;;;;;;;5074759;28;20188;-77
2023/07/20 10:01:41;;;;;;;1.30;1.30;;;;;;;;;;5054546;28;20102;-77
2023/07/20 10:04:11;;;;;;;4.20;1.30;;;;;;;;;;5060640;28;20037;-77
2023/07/20 10:06:41;;;;;;;1.15;1.00;;;;;;;;;;5053601;28;20053;-77
2023/07/20 10:09:10;;;;;;;3.43;1.50;;;;;;;;;;5053614;28;20202;-76
2023/07/20 10:11:40;;;;;;;1.75;1.52;;;;;;;;;;5056356;28;20286;-76
2023/07/20 10:14:12;;;;;;;1.52;1.20;;;;;;;;;;5056744;28;20039;-76
2023/07/20 10:16:48;;;;;;;1.42;1.20;;;;;;;;;;5051242;28;20048;-76
2023/07/20 10:19:25;;;;;;;1.85;1.40;;;;;;;;;;5056521;28;20044;-76
2023/07/20 10:21:57;;;;;;;1.30;1.20;;;;;;;;;;5060683;28;20048;-76
2023/07/20 10:24:26;;;;;;;1.67;1.58;;;;;;;;;;5069676;28;20076;-78
2023/07/20 10:26:55;;;;;;;1.45;1.27;;;;;;;;;;5061552;28;20052;-78
2023/07/20 10:29:23;;;;;;;1.20;1.20;;;;;;;;;;5069127;28;20045;-77
2023/07/20 10:31:50;;;;;;;2.00;1.30;;;;;;;;;;5069435;28;20098;-77
2023/07/20 10:34:22;;;;;;;1.77;1.67;;;;;;;;;;5069864;28;20063;-77
2023/07/20 10:36:54;;;;;;;1.50;1.40;;;;;;;;;;5067139;28;20040;-76
2023/07/20 10:39:24;;;;;;;1.40;1.05;;;;;;;;;;5065685;28;20048;-76
2023/07/20 10:42:00;;;;;;;1.27;1.13;;;;;;;;;;5069355;28;20123;-76
2023/07/20 10:44:28;;;;;;;1.38;1.27;;;;;;;;;;5068433;28;20403;-77
2023/07/20 10:47:02;;;;;;;1.92;1.20;;;;;;;;;;5049183;28;20503;-76
2023/07/20 10:49:33;;;;;;;1.92;1.20;;;;;;;;;;5052663;28;20107;-76
2023/07/20 10:52:04;;;;;;;2.25;1.33;;;;;;;;;;5063044;28;20114;-77
2023/07/20 10:54:32;;;;;;;2.17;1.30;;;;;;;;;;5057977;28;20052;-77
2023/07/20 10:57:20;;;;;;;1.80;1.70;;;;;;;;;;5054107;28;20094;-78
2023/07/20 10:59:47;;;;;;;1.75;1.38;;;;;;;;;;5052983;28;20051;-77
2023/07/20 11:02:19;;;;;;;1.40;1.27;;;;;;;;;;5053741;28;20050;-77
2023/07/20 11:04:48;;;;;;;5.30;2.13;;;;;;;;;;5050904;28;20045;-78
2023/07/20 11:07:55;;;;;;;1.30;1.20;;;;;;;;;;5062462;28;20417;-78
2023/07/20 11:10:23;;;;;;;1.27;1.17;;;;;;;;;;5068154;28;20032;-76
2023/07/20 11:13:14;;;;;;;3.20;1.30;;;;;;;;;;5069933;28;20060;-76
2023/07/20 11:15:56;;;;;;;3.00;1.33;;;;;;;;;;5055344;28;20041;-76
2023/07/20 11:18:27;;;;;;;2.60;0.88;;;;;;;;;;5054877;28;20075;-77
2023/07/20 11:20:54;;;;;;;1.45;1.15;;;;;;;;;;5061737;28;20067;-76
2023/07/20 11:23:22;;;;;;;2.22;1.13;;;;;;;;;;5063126;28;20048;-77
2023/07/20 11:25:50;;;;;;;2.25;1.13;;;;;;;;;;5065029;28;20060;-77
2023/07/20 11:28:17;;;;;;;2.05;1.13;;;;;;;;;;5063616;28;20064;-78
2023/07/20 11:30:45;;;;;;;3.00;1.10;;;;;;;;;;5066486;28;20045;-77
2023/07/20 11:33:12;;;;;;;1.10;1.10;;;;;;;;;;5054880;28;20055;-77
2023/07/20 11:35:47;;;;;;;2.30;1.15;;;;;;;;;;5057193;28;20117;-78
2023/07/20 11:38:15;;;;;;;2.83;1.25;;;;;;;;;;5066546;28;20068;-78
2023/07/20 11:40:45;;;;;;;1.20;1.10;;;;;;;;;;5064975;28;20083;-78
2023/07/20 11:43:13;;;;;;;1.17;1.17;;;;;;;;;;5062738;28;20414;-78
2023/07/20 11:45:44;;;;;;;1.50;1.00;;;;;;;;;;5066187;28;20053;-79
2023/07/20 11:48:16;;;;;;;1.77;1.25;;;;;;;;;;5063816;28;20123;-78
2023/07/20 11:50:44;;;;;;;1.00;1.00;;;;;;;;;;5066683;28;20141;-77
2023/07/20 11:53:11;;;;;;;1.20;1.10;;;;;;;;;;5065370;28;20059;-77
2023/07/20 11:55:40;;;;;;;1.10;1.10;;;;;;;;;;5067466;28;20048;-77
2023/07/20 11:58:08;;;;;;;2.40;1.15;;;;;;;;;;5065123;28;20079;-77
2023/07/20 12:00:37;;;;;;;2.00;1.10;;;;;;;;;;5067390;28;20044;-77
2023/07/20 12:03:09;;;;;;;2.17;1.30;;;;;;;;;;5065415;28;20048;-79
2023/07/20 12:05:39;;;;;;;1.10;1.10;;;;;;;;;;5070303;28;20048;-78
2023/07/20 12:08:26;;;;;;;2.55;1.10;;;;;;;;;;5065563;28;20072;-78
2023/07/20 12:10:54;;;;;;;2.83;1.00;;;;;;;;;;5070982;28;20072;-79
2023/07/20 12:13:22;;;;;;;1.00;1.00;;;;;;;;;;5073260;28;20044;-78
2023/07/20 12:15:54;;;;;;;0.90;0.90;;;;;;;;;;5073581;28;20064;-79
2023/07/20 12:18:24;;;;;;;1.20;1.20;;;;;;;;;;5071198;28;20175;-79
2023/07/20 12:20:59;;;;;;;0.80;0.80;;;;;;;;;;5073464;28;20056;-78
2023/07/20 12:23:27;;;;;;;1.50;0.90;;;;;;;;;;5072291;28;20061;-78
2023/07/20 12:25:57;;;;;;;2.13;1.08;;;;;;;;;;5072170;28;20120;-77
2023/07/20 12:28:26;;;;;;;0.88;0.88;;;;;;;;;;5070063;28;20059;-78
2023/07/20 12:30:56;;;;;;;1.17;1.00;;;;;;;;;;5068562;28;20048;-77
2023/07/20 12:33:24;;;;;;;1.23;0.90;;;;;;;;;;5061479;28;20064;-77
2023/07/20 12:35:55;;;;;;;1.33;1.00;;;;;;;;;;5067601;28;20051;-76
2023/07/20 12:38:23;;;;;;;2.50;1.00;;;;;;;;;;5059552;28;20044;-77
2023/07/20 12:40:50;;;;;;;0.80;0.80;;;;;;;;;;5070314;28;20109;-77
2023/07/20 12:43:18;;;;;;;1.95;0.95;;;;;;;;;;5060036;28;20150;-76
2023/07/20 12:45:45;;;;;;;4.35;0.90;;;;;;;;;;5066165;28;20076;-76
2023/07/20 12:48:12;;;;;;;1.63;1.17;;;;;;;;;;5057934;28;20056;-76
2023/07/20 12:50:40;;;;;;;1.00;1.00;;;;;;;;;;5066287;28;20129;-76
2023/07/20 12:53:08;;;;;;;1.08;0.88;;;;;;;;;;5065373;28;20397;-77
2023/07/20 12:55:35;;;;;;;0.98;0.90;;;;;;;;;;5071597;28;20071;-78
2023/07/20 12:58:02;;;;;;;0.85;0.85;;;;;;;;;;5071758;28;20052;-78
2023/07/20 13:00:30;;;;;;;1.75;0.90;;;;;;;;;;5071510;28;20064;-79
2023/07/20 13:02:57;;;;;;;1.42;0.82;;;;;;;;;;5064891;28;20056;-78
2023/07/20 13:05:28;;;;;;;1.15;0.80;;;;;;;;;;5072043;28;20097;-79
2023/07/20 13:07:58;;;;;;;1.50;0.98;;;;;;;;;;5071878;28;20065;-77
2023/07/20 13:10:28;;;;;;;2.17;1.20;;;;;;;;;;5071899;28;20036;-78
2023/07/20 13:12:57;;;;;;;3.78;1.10;;;;;;;;;;5070403;28;20078;-78
2023/07/20 13:15:30;;;;;;;1.58;0.90;;;;;;;;;;5070849;28;20044;-79
2023/07/20 13:17:58;;;;;;;1.13;1.00;;;;;;;;;;5070911;28;20052;-78
2023/07/20 13:20:28;;;;;;;1.38;1.10;;;;;;;;;;5064036;28;20076;-78
2023/07/20 13:22:55;;;;;;;2.30;1.02;;;;;;;;;;5065290;28;20532;-78
2023/07/20 13:25:23;;;;;;;1.35;0.93;;;;;;;;;;5069609;28;20126;-79
2023/07/20 13:27:50;;;;;;;1.08;0.80;;;;;;;;;;5074767;28;20052;-78
2023/07/20 13:30:18;;;;;;;1.17;0.80;;;;;;;;;;5069824;28;20080;-78
2023/07/20 13:32:46;;;;;;;0.80;0.80;;;;;;;;;;5068752;28;20109;-79
2023/07/20 13:35:14;;;;;;;1.70;0.85;;;;;;;;;;5072947;28;20049;-78
2023/07/20 13:37:42;;;;;;;0.98;0.98;;;;;;;;;;5063192;28;20045;-78
2023/07/20 13:40:13;;;;;;;2.50;2.40;;;;;;;;;;5056907;28;20111;-78
2023/07/20 13:42:40;;;;;;;4.15;3.95;;;;;;;;;;5056025;28;20140;-77
2023/07/20 13:45:08;;;;;;;1.67;1.58;;;;;;;;;;5054200;28;20435;-78
2023/07/20 13:47:36;;;;;;;2.70;1.02;;;;;;;;;;5054256;28;20048;-78
2023/07/20 13:50:04;;;;;;;2.05;0.90;;;;;;;;;;5066119;28;20419;-77
2023/07/20 13:52:32;;;;;;;3.15;0.90;;;;;;;;;;5062108;28;20057;-77
2023/07/20 13:55:03;;;;;;;1.42;0.80;;;;;;;;;;5063786;28;20044;-78
2023/07/20 13:57:32;;;;;;;0.80;0.80;;;;;;;;;;5063724;28;20062;-78
2023/07/20 14:00:04;;;;;;;2.38;1.00;;;;;;;;;;5069373;28;20069;-77
2023/07/20 14:02:41;;;;;;;1.40;1.08;;;;;;;;;;5062636;28;20049;-77
2023/07/20 14:05:11;;;;;;;1.00;1.00;;;;;;;;;;5067447;28;20053;-79
2023/07/20 14:07:43;;;;;;;;;;;;;;;;;;5072557;28;20045;-78
2023/07/20 14:10:11;;;;;;;1.33;0.80;;;;;;;;;;5064419;28;19924;-78
2023/07/20 14:12:41;;;;;;;1.98;0.85;;;;;;;;;;5072334;28;20048;-78
2023/07/20 14:15:10;;;;;;;1.25;0.88;;;;;;;;;;5072121;28;20041;-78
2023/07/20 14:17:38;;;;;;;1.33;1.00;;;;;;;;;;5072927;28;20049;-78
2023/07/20 14:20:08;;;;;;;3.72;0.80;;;;;;;;;;5065623;28;20055;-78
2023/07/20 14:22:49;;;;;;;0.80;0.80;;;;;;;;;;5071870;28;20037;-77
2023/07/20 14:25:18;;;;;;;1.03;0.90;;;;;;;;;;5071248;28;20072;-78
2023/07/20 14:27:47;;;;;;;0.70;0.70;;;;;;;;;;5065316;28;20053;-79
2023/07/20 14:30:14;;;;;;;1.63;0.90;;;;;;;;;;5072389;28;20064;-78
2023/07/20 14:32:42;;;;;;;0.70;0.70;;;;;;;;;;5073444;28;20052;-78
2023/07/20 14:35:09;;;;;;;2.42;0.80;;;;;;;;;;5071578;28;20058;-78
2023/07/20 14:37:38;;;;;;;0.90;0.90;;;;;;;;;;5072784;28;20059;-79
2023/07/20 14:40:06;;;;;;;0.70;0.70;;;;;;;;;;5070427;28;20568;-78
2023/07/20 14:42:36;;;;;;;1.27;1.08;;;;;;;;;;5067717;28;20131;-78
2023/07/20 14:45:05;;;;;;;1.25;0.90;;;;;;;;;;5067054;28;20045;-79
2023/07/20 14:47:34;;;;;;;1.05;0.77;;;;;;;;;;5064498;28;20052;-78
2023/07/20 14:50:03;;;;;;;0.80;0.80;;;;;;;;;;5071443;28;20525;-78
2023/07/20 14:52:30;;;;;;;2.80;1.10;;;;;;;;;;5068935;28;20044;-79
2023/07/20 14:54:58;;;;;;;0.77;0.77;;;;;;;;;;5064989;28;20061;-79